Time;durP1;ratioP1;P1;durP2;ratioP2;P2;SDS_P1;SDS_P2;PMS_P1;PMS_P2;Temp;Humidity;BMP_temperature;BMP_pressure;BME280_temperature;BME280_humidity;BME280_pressure;Samples;Min_cycle;Max_cycle;Signal;HPM_P1;HPM_P2
2022/03/02 00:01:40;;;;;;;;;;;;;;;2.38;71.00;100425.75;5003300;28;20129;-83
2022/03/02 00:04:06;;;;;;;1.83;1.73;;;;;;;2.65;70.46;100423.09;5006217;28;19962;-83
2022/03/02 00:06:31;;;;;;;;;;;;;;;2.81;69.54;100416.56;4992447;28;20476;-84
2022/03/02 00:08:57;;;;;;;;;;;;;;;2.80;68.75;100410.50;4986640;28;19967;-84
2022/03/02 00:11:23;;;;;;;1.35;1.35;;;;;;;2.35;68.80;100389.22;4984920;28;19918;-84
2022/03/02 00:13:49;;;;;;;1.48;1.38;;;;;;;2.57;69.31;100414.19;4982841;28;20034;-85
2022/03/02 00:16:14;;;;;;;;;;;;;;;2.15;70.14;100412.94;4967093;28;20031;-84
2022/03/02 00:18:40;;;;;;;2.35;2.08;;;;;;;2.00;70.58;100397.72;4972147;28;19946;-86
2022/03/02 00:21:06;;;;;;;;;;;;;;;2.25;70.22;100406.28;4997815;28;20069;-83
2022/03/02 00:23:31;;;;;;;2.10;2.00;;;;;;;1.74;71.37;100369.19;4994705;28;19981;-83
2022/03/02 00:25:57;;;;;;;;;;;;;;;1.91;71.69;100402.66;4986604;28;20061;-90
2022/03/02 00:28:23;;;;;;;1.80;1.67;;;;;;;1.98;71.61;100383.81;4985640;28;19917;-83
2022/03/02 00:30:49;;;;;;;3.17;1.95;;;;;;;1.74;71.96;100370.91;4986412;28;20053;-84
2022/03/02 00:33:15;;;;;;;;;;;;;;;1.75;73.00;100389.16;4987066;28;20480;-83
2022/03/02 00:35:41;;;;;;;2.08;1.90;;;;;;;1.68;73.18;100382.00;4986511;28;19918;-83
2022/03/02 00:38:10;;;;;;;;;;;;;;;1.82;73.51;100392.84;4986628;28;20034;-83
2022/03/02 00:40:39;;;;;;;1.27;1.27;;;;;;;1.96;72.50;100364.63;4993224;28;19925;-83
2022/03/02 00:43:05;;;;;;;1.73;1.63;;;;;;;2.00;71.68;100356.09;5006110;28;20030;-84
2022/03/02 00:45:32;;;;;;;2.45;2.35;;;;;;;2.21;71.11;100381.91;5006024;28;20034;-85
2022/03/02 00:47:59;;;;;;;1.80;1.70;;;;;;;1.96;71.66;100368.16;5005648;28;20042;-86
2022/03/02 00:50:25;;;;;;;2.53;2.40;;;;;;;2.18;71.26;100376.59;5005291;28;20030;-82
2022/03/02 00:52:50;;;;;;;;;;;;;;;2.38;70.49;100377.19;5005045;28;20090;-83
2022/03/02 00:55:16;;;;;;;4.68;4.28;;;;;;;1.95;69.90;100350.75;5004699;28;19928;-83
2022/03/02 00:57:41;;;;;;;;;;;;;;;1.76;71.17;100366.63;5005696;28;20032;-84
2022/03/02 01:00:08;;;;;;;1.30;1.30;;;;;;;1.75;71.24;100352.75;5001758;28;19921;-82
2022/03/02 01:02:33;;;;;;;4.10;3.67;;;;;;;1.78;70.78;100328.56;4984695;28;20586;-83
2022/03/02 01:04:58;;;;;;;;;;;;;;;2.07;70.65;100363.25;4985980;28;20065;-83
2022/03/02 01:07:24;;;;;;;;;;;;;;;2.10;70.12;100371.16;4984686;28;19970;-82
2022/03/02 01:09:49;;;;;;;2.42;2.22;;;;;;;2.00;70.06;100353.50;4986899;28;19917;-82
2022/03/02 01:12:15;;;;;;;;;;;;;;;2.13;69.27;100365.16;4986087;28;20034;-82
2022/03/02 01:14:40;;;;;;;;;;;;;;;2.43;68.36;100357.34;4984816;28;19921;-82
2022/03/02 01:17:06;;;;;;;3.13;2.28;;;;;;;2.24;68.16;100310.78;4984406;28;19922;-86
2022/03/02 01:19:32;;;;;;;;;;;;;;;2.61;67.92;100358.72;4987630;28;20805;-84
2022/03/02 01:21:57;;;;;;;1.20;1.20;;;;;;;2.48;67.89;100337.53;5004876;28;19944;-83
2022/03/02 01:24:23;;;;;;;;;;;;;;;2.75;67.81;100356.47;5003870;28;20403;-84
2022/03/02 01:26:48;;;;;;;;;;;;;;;2.84;67.44;100348.91;5003662;28;20371;-84
2022/03/02 01:29:14;;;;;;;1.75;1.65;;;;;;;2.88;67.29;100349.91;4984812;28;19917;-83
2022/03/02 01:31:39;;;;;;;;;;;;;;;2.78;67.26;100356.56;5001935;28;20077;-83
2022/03/02 01:34:05;;;;;;;1.30;1.30;;;;;;;2.86;66.71;100342.91;5003023;28;19918;-83
2022/03/02 01:36:30;;;;;;;;;;;;;;;2.74;67.52;100344.31;4985265;28;20038;-83
2022/03/02 01:38:56;;;;;;;1.63;1.52;;;;;;;2.82;67.68;100342.78;4995049;28;19974;-83
2022/03/02 01:41:23;;;;;;;;;;;;;;;2.84;67.41;100330.66;5003683;28;20423;-84
2022/03/02 01:43:50;;;;;;;2.35;2.13;;;;;;;2.73;66.65;100303.47;5004090;28;19913;-83
2022/03/02 01:46:17;;;;;;;5.53;3.17;;;;;;;2.90;67.09;100327.34;4968470;28;20110;-83
2022/03/02 01:48:43;;;;;;;2.10;2.00;;;;;;;2.65;67.13;100318.88;4964828;28;20463;-84
2022/03/02 01:51:09;;;;;;;7.70;5.00;;;;;;;2.68;67.04;100314.63;4990941;28;20049;-82
2022/03/02 01:53:35;;;;;;;;;;;;;;;2.79;67.01;100333.16;5002604;28;20039;-83
2022/03/02 01:56:00;;;;;;;1.75;1.63;;;;;;;2.69;67.07;100303.38;5004070;28;19970;-83
2022/03/02 01:58:27;;;;;;;;;;;;;;;2.85;66.96;100322.03;4997187;28;20038;-82
2022/03/02 02:00:52;;;;;;;2.22;2.10;;;;;;;2.65;66.64;100272.88;4994754;28;19924;-82
2022/03/02 02:03:18;;;;;;;;;;;;;;;2.81;66.88;100314.94;5005026;28;20030;-83
2022/03/02 02:05:44;;;;;;;1.15;1.15;;;;;;;2.54;66.77;100266.50;4994082;28;19918;-83
2022/03/02 02:08:10;;;;;;;;;;;;;;;2.72;67.05;100310.41;4969076;28;20105;-84
2022/03/02 02:10:36;;;;;;;1.10;1.10;;;;;;;2.73;67.18;100301.72;4984337;28;19913;-83
2022/03/02 02:13:01;;;;;;;;;;;;;;;2.70;67.03;100296.44;5007574;28;20041;-84
2022/03/02 02:15:27;;;;;;;2.55;2.40;;;;;;;2.63;66.95;100284.09;4975244;28;20370;-82
2022/03/02 02:17:52;;;;;;;;;;;;;;;2.69;66.80;100299.91;4974964;28;20045;-83
2022/03/02 02:20:18;;;;;;;;;;;;;;;2.60;67.29;100300.53;5000840;28;19918;-83
2022/03/02 02:22:45;;;;;;;2.08;1.98;;;;;;;2.60;67.65;100284.03;4987168;28;20349;-84
2022/03/02 02:25:12;;;;;;;1.65;1.55;;;;;;;2.49;67.50;100268.09;4987692;28;20034;-82
2022/03/02 02:27:38;;;;;;;1.08;1.08;;;;;;;2.53;67.68;100292.50;4985093;28;20387;-82
2022/03/02 02:30:05;;;;;;;2.15;2.05;;;;;;;2.56;67.75;100289.97;5000836;28;20057;-83
2022/03/02 02:32:31;;;;;;;2.40;2.30;;;;;;;2.51;67.87;100269.03;4987457;28;20066;-85
2022/03/02 02:34:57;;;;;;;;;;;;;;;2.65;67.74;100292.84;4987018;28;20164;-85
2022/03/02 02:37:24;;;;;;;1.85;1.75;;;;;;;2.55;67.77;100281.28;4967815;28;19921;-84
2022/03/02 02:39:58;;;;;;;3.70;2.75;;;;;;;2.44;67.73;100282.72;5003814;28;20121;-82
2022/03/02 02:42:24;;;;;;;2.38;2.17;;;;;;;2.47;68.40;100298.41;4985728;28;20133;-82
2022/03/02 02:44:50;;;;;;;;;;;;;;;2.53;68.68;100285.56;4986942;28;20278;-83
2022/03/02 02:47:15;;;;;;;1.80;1.73;;;;;;;2.60;68.36;100282.28;4986965;28;19914;-83
2022/03/02 02:49:41;;;;;;;;;;;;;;;2.53;68.86;100277.75;4986402;28;20027;-83
2022/03/02 02:52:06;;;;;;;2.20;2.10;;;;;;;2.32;68.31;100250.28;5006715;28;20287;-83
2022/03/02 02:54:32;;;;;;;;;;;;;;;2.50;69.03;100277.66;4986768;28;20049;-82
2022/03/02 02:56:57;;;;;;;2.30;2.10;;;;;;;2.30;68.79;100254.59;4986361;28;20300;-82
2022/03/02 02:59:24;;;;;;;;;;;;;;;2.49;68.58;100275.91;4987059;28;20042;-81
2022/03/02 03:01:50;;;;;;;1.08;1.08;;;;;;;2.56;68.82;100274.34;4985629;28;19929;-83
2022/03/02 03:04:15;;;;;;;;;;;;;;;2.58;68.18;100267.44;4967670;28;20034;-82
2022/03/02 03:06:40;;;;;;;1.30;1.30;;;;;;;2.55;68.55;100268.28;4966250;28;20126;-83
2022/03/02 03:09:06;;;;;;;;;;;;;;;2.57;68.57;100277.00;4967753;28;20046;-82
2022/03/02 03:11:32;;;;;;;;;;;;;;;2.42;68.67;100277.47;4986237;28;20047;-82
2022/03/02 03:13:58;;;;;;;2.15;2.05;;;;;;;2.47;68.70;100274.97;4986555;28;19914;-82
2022/03/02 03:16:24;;;;;;;1.98;1.88;;;;;;;2.34;68.75;100239.94;4986664;28;20424;-82
2022/03/02 03:18:50;;;;;;;;;;;;;;;2.52;68.51;100278.63;4999895;28;20046;-87
2022/03/02 03:21:15;;;;;;;2.22;2.13;;;;;;;2.47;68.51;100261.97;4990536;28;20800;-82
2022/03/02 03:23:41;;;;;;;;;;;;;;;2.49;68.70;100268.97;4986777;28;20617;-83
2022/03/02 03:26:06;;;;;;;;;;;;;;;2.59;68.30;100277.91;4987570;28;19914;-83
2022/03/02 03:28:32;;;;;;;1.60;1.58;;;;;;;2.53;68.42;100272.53;4987480;28;19913;-83
2022/03/02 03:30:57;;;;;;;;;;;;;;;2.43;68.74;100274.03;4999756;28;20133;-84
2022/03/02 03:33:22;;;;;;;;;;;;;;;2.38;68.76;100275.63;5007860;28;19918;-84
2022/03/02 03:35:48;;;;;;;1.80;1.70;;;;;;;2.29;69.24;100263.22;5007373;28;19966;-83
2022/03/02 03:38:13;;;;;;;;;;;;;;;2.33;69.19;100278.09;5005106;28;20305;-83
2022/03/02 03:40:38;;;;;;;;;;;;;;;2.42;69.35;100273.97;4996377;28;19918;-84
2022/03/02 03:43:04;;;;;;;2.60;2.47;;;;;;;2.43;69.21;100273.16;4987020;28;19922;-84
2022/03/02 03:45:30;;;;;;;;;;;;;;;2.37;69.63;100275.59;4988454;28;20046;-86
2022/03/02 03:47:56;;;;;;;5.20;4.82;;;;;;;2.33;69.78;100274.59;4986685;28;19930;-85
2022/03/02 03:50:21;;;;;;;;;;;;;;;2.36;69.96;100266.00;4986902;28;20034;-83
2022/03/02 03:52:47;;;;;;;2.50;2.40;;;;;;;2.15;70.05;100254.16;4985834;28;19920;-82
2022/03/02 03:55:13;;;;;;;;;;;;;;;2.20;70.54;100265.56;4985021;28;20072;-82
2022/03/02 03:57:39;;;;;;;4.72;4.40;;;;;;;2.06;69.97;100243.50;4978994;28;19926;-80
2022/03/02 04:00:06;;;;;;;;;;;;;;;2.04;70.22;100260.78;4981243;28;20488;-80
2022/03/02 04:02:32;;;;;;;3.67;3.42;;;;;;;1.87;70.57;100253.38;4966482;28;19922;-81
2022/03/02 04:04:58;;;;;;;;;;;;;;;1.91;70.67;100257.81;4965411;28;20045;-80
2022/03/02 04:07:23;;;;;;;5.97;4.97;;;;;;;1.86;70.58;100256.81;4966764;28;19924;-80
2022/03/02 04:09:49;;;;;;;;;;;;;;;1.80;71.04;100264.44;4977922;28;20034;-78
2022/03/02 04:12:14;;;;;;;;;;;;;;;1.79;71.33;100265.25;5005277;28;20310;-80
2022/03/02 04:14:40;;;;;;;4.32;4.03;;;;;;;1.77;71.08;100260.00;5004409;28;19917;-78
2022/03/02 04:17:05;;;;;;;;;;;;;;;1.78;70.92;100266.13;5005666;28;20054;-82
2022/03/02 04:19:31;;;;;;;1.65;1.55;;;;;;;1.70;70.46;100239.88;5001595;28;19924;-80
2022/03/02 04:21:56;;;;;;;;;;;;;;;1.82;70.55;100270.56;4986232;28;20612;-81
2022/03/02 04:24:21;;;;;;;1.83;1.73;;;;;;;1.70;70.59;100250.28;4985903;28;19924;-79
2022/03/02 04:26:47;;;;;;;;;;;;;;;1.73;71.05;100265.06;4985017;28;20046;-81
2022/03/02 04:29:12;;;;;;;;;;;;;;;1.77;70.73;100262.63;4969439;28;19922;-80
2022/03/02 04:31:38;;;;;;;1.60;1.50;;;;;;;1.75;70.56;100251.28;5004806;28;19928;-80
2022/03/02 04:34:03;;;;;;;;;;;;;;;1.78;70.89;100253.13;4995513;28;20330;-79
2022/03/02 04:36:28;;;;;;;3.05;2.85;;;;;;;1.55;70.99;100247.22;4965581;28;19922;-80
2022/03/02 04:38:54;;;;;;;;;;;;;;;1.58;71.22;100250.78;4966394;28;20030;-81
2022/03/02 04:41:19;;;;;;;;;;;;;;;1.55;71.53;100245.50;5002528;28;19925;-80
2022/03/02 04:43:45;;;;;;;2.10;2.00;;;;;;;1.57;71.44;100251.63;4992308;28;20559;-79
2022/03/02 04:46:11;;;;;;;3.78;3.58;;;;;;;1.52;71.67;100248.00;4985741;28;20038;-81
2022/03/02 04:48:36;;;;;;;;;;;;;;;1.52;71.36;100249.72;4985782;28;20467;-78
2022/03/02 04:51:02;;;;;;;5.28;4.90;;;;;;;1.63;71.29;100240.53;5000970;28;20704;-79
2022/03/02 04:53:27;;;;;;;;;;;;;;;1.64;71.32;100244.91;4984834;28;20131;-79
2022/03/02 04:55:53;;;;;;;2.47;2.38;;;;;;;1.19;72.19;100219.22;4967857;28;20299;-82
2022/03/02 04:58:18;;;;;;;;;;;;;;;1.25;72.63;100248.03;4985108;28;20199;-81
2022/03/02 05:00:44;;;;;;;;;;;;;;;1.18;72.89;100251.28;4995675;28;19921;-81
2022/03/02 05:03:09;;;;;;;1.67;1.60;;;;;;;1.03;73.00;100229.16;4999894;28;19921;-82
2022/03/02 05:05:36;;;;;;;;;;;;;;;1.29;73.17;100254.22;4977644;28;20176;-81
2022/03/02 05:08:02;;;;;;;2.60;2.50;;;;;;;1.07;73.05;100212.84;4966126;28;20009;-82
2022/03/02 05:10:29;;;;;;;6.57;6.00;;;;;;;1.23;72.89;100226.31;4981311;28;20176;-81
2022/03/02 05:12:55;;;;;;;13.48;3.50;;;;;;;1.04;73.34;100189.34;4991777;28;20500;-81
2022/03/02 05:15:22;;;;;;;3.53;3.33;;;;;;;1.41;73.17;100255.47;4984857;28;20046;-84
2022/03/02 05:17:49;;;;;;;3.33;3.10;;;;;;;1.52;72.88;100247.13;4985077;28;20054;-84
2022/03/02 05:20:16;;;;;;;2.75;2.58;;;;;;;1.35;73.11;100223.22;4992403;28;20053;-83
2022/03/02 05:22:42;;;;;;;3.72;3.47;;;;;;;1.30;73.86;100250.75;4984341;28;20519;-83
2022/03/02 05:25:08;;;;;;;;;;;;;;;1.42;73.97;100251.16;4984658;28;20093;-84
2022/03/02 05:31:57;;;;;;;5.55;5.13;;;;;;;1.67;73.85;100234.59;5079854;27;2240859;-84
2022/03/02 05:34:22;;;;;;;11.68;10.75;;;;;;;1.52;74.02;100205.53;5124930;27;20039;-83
2022/03/02 05:36:48;;;;;;;;;;;;;;;1.58;74.51;100244.72;5106238;28;20519;-84
2022/03/02 05:39:13;;;;;;;;;;;;;;;1.63;74.71;100240.53;5124720;28;19919;-85
2022/03/02 05:41:39;;;;;;;2.95;2.58;;;;;;;1.48;74.21;100180.25;5124599;28;19981;-83
2022/03/02 05:44:04;;;;;;;;;;;;;;;1.94;73.52;100244.88;5125670;28;20035;-83
2022/03/02 05:46:31;;;;;;;1.45;1.42;;;;;;;1.83;73.88;100243.72;5125087;28;20014;-87
2022/03/02 05:48:56;;;;;;;3.15;2.95;;;;;;;1.90;74.21;100250.88;5105215;28;20861;-82
2022/03/02 05:51:22;;;;;;;;;;;;;;;2.06;73.42;100243.50;5125438;28;20036;-89
2022/03/02 05:53:47;;;;;;;2.00;1.90;;;;;;;1.81;73.17;100198.56;5107534;28;19919;-86
2022/03/02 05:56:13;;;;;;;;;;;;;;;2.06;73.18;100248.69;5124706;28;20110;-83
2022/03/02 05:58:38;;;;;;;;;;;;;;;2.24;72.70;100251.81;5106240;28;19922;-83
2022/03/02 06:01:04;;;;;;;1.20;1.20;;;;;;;1.91;72.09;100165.88;5125054;28;19947;-84
2022/03/02 06:03:29;;;;;;;;;;;;;;;2.37;71.49;100258.22;5124570;27;20031;-85
2022/03/02 06:05:55;;;;;;;2.30;2.20;;;;;;;2.21;72.15;100237.81;5115644;28;19916;-83
2022/03/02 06:08:21;;;;;;;;;;;;;;;2.44;71.92;100252.38;5105007;28;20044;-86
2022/03/02 06:10:47;;;;;;;1.95;1.85;;;;;;;2.55;71.51;100254.34;5111253;28;19915;-84
2022/03/02 06:13:14;;;;;;;4.25;4.03;;;;;;;2.26;70.93;100218.88;5123322;28;20489;-84
2022/03/02 06:15:40;;;;;;;5.63;5.28;;;;;;;2.49;71.09;100261.16;5122832;28;20505;-84
2022/03/02 06:18:06;;;;;;;4.97;4.60;;;;;;;2.64;70.41;100229.44;5123884;28;20066;-83
2022/03/02 06:20:32;;;;;;;;;;;;;;;2.96;69.60;100260.63;5123498;28;20039;-83
2022/03/02 06:22:58;;;;;;;4.35;3.95;;;;;;;2.88;70.30;100261.28;5111984;28;19994;-85
2022/03/02 06:25:24;;;;;;;4.18;3.88;;;;;;;2.85;71.07;100209.97;5103572;28;20032;-83
2022/03/02 06:27:49;;;;;;;;;;;;;;;3.45;71.54;100260.06;5103193;28;20024;-83
2022/03/02 06:30:15;;;;;;;2.10;1.98;;;;;;;3.42;68.87;100231.28;5084528;28;19916;-83
2022/03/02 06:32:40;;;;;;;;;;;;;;;3.92;69.70;100260.19;5104092;28;20027;-83
2022/03/02 06:35:06;;;;;;;;;;;;;;;4.17;68.33;100247.63;5104617;28;19955;-83
2022/03/02 06:37:33;;;;;;;2.80;2.70;;;;;;;3.94;66.66;100230.66;5101229;28;20305;-83
2022/03/02 06:40:06;;;;;;;3.45;3.25;;;;;;;4.02;66.65;100217.78;5111105;28;20119;-82
2022/03/02 06:42:41;;;;;;;4.13;3.78;;;;;;;4.42;67.22;100246.41;5094409;28;20027;-82
2022/03/02 06:45:20;;;;;;;2.50;2.38;;;;;;;4.61;66.26;100231.94;5107528;28;20562;-82
2022/03/02 06:48:10;;;;;;;3.40;3.17;;;;;;;4.10;65.35;100244.91;5109824;28;20028;-81
2022/03/02 06:50:38;;;;;;;6.57;3.33;;;;;;;4.47;64.28;100245.63;5109710;28;20039;-82
2022/03/02 06:53:09;;;;;;;4.03;3.80;;;;;;;4.48;64.24;100260.44;5109792;28;20028;-82
2022/03/02 06:55:34;;;;;;;6.35;3.28;;;;;;;4.30;63.85;100233.97;5110010;28;20161;-82
2022/03/02 06:58:01;;;;;;;;;;;;;;;4.28;64.46;100251.38;5110332;28;20115;-82
2022/03/02 07:00:27;;;;;;;2.35;2.13;;;;;;;4.17;64.15;100218.91;5109897;28;19918;-82
2022/03/02 07:03:05;;;;;;;3.67;3.45;;;;;;;4.21;64.90;100258.16;5110521;28;20035;-82
2022/03/02 07:05:31;;;;;;;3.22;3.03;;;;;;;4.27;65.05;100241.75;5110055;28;20043;-82
2022/03/02 07:07:59;;;;;;;4.28;3.88;;;;;;;4.46;64.58;100248.19;5109218;28;20496;-82
2022/03/02 07:10:24;;;;;;;8.45;4.80;;;;;;;4.62;63.88;100225.84;5109652;28;20027;-83
2022/03/02 07:12:50;;;;;;;;;;;;;;;4.29;64.04;100256.63;5110413;28;20039;-83
2022/03/02 07:15:15;;;;;;;1.75;1.65;;;;;;;4.43;63.75;100243.81;5110004;28;19912;-83
2022/03/02 07:17:41;;;;;;;;;;;;;;;4.24;64.24;100241.69;5110166;28;20031;-84
2022/03/02 07:20:11;;;;;;;3.53;3.28;;;;;;;3.98;64.06;100204.63;5109569;28;19912;-85
2022/03/02 07:22:43;;;;;;;2.53;2.42;;;;;;;3.87;63.04;100214.84;5109122;28;20042;-84
2022/03/02 07:25:25;;;;;;;7.35;6.68;;;;;;;3.61;63.84;100209.09;5109439;28;20148;-83
2022/03/02 07:27:53;;;;;;;5.32;2.25;;;;;;;4.02;63.26;100215.16;5109728;28;20035;-84
2022/03/02 07:30:20;;;;;;;3.03;2.72;;;;;;;4.15;63.73;100231.94;5109130;28;20081;-87
2022/03/02 07:32:46;;;;;;;4.03;3.75;;;;;;;4.55;61.93;100226.59;5109346;28;20035;-84
2022/03/02 07:35:14;;;;;;;3.47;3.28;;;;;;;4.16;60.78;100170.16;5109211;28;20537;-85
2022/03/02 07:37:39;;;;;;;3.78;3.42;;;;;;;4.19;61.15;100207.66;5108763;28;20477;-84
2022/03/02 07:40:05;;;;;;;;;;;;;;;4.49;61.30;100209.06;5109967;28;20038;-84
2022/03/02 07:42:32;;;;;;;2.38;2.25;;;;;;;4.16;60.95;100178.88;5109421;28;19951;-85
2022/03/02 07:44:58;;;;;;;5.45;3.28;;;;;;;4.47;62.13;100167.22;5109130;28;20111;-87
2022/03/02 07:47:24;;;;;;;;;;;;;;;4.92;59.09;100201.94;5088277;28;20074;-84
2022/03/02 07:49:50;;;;;;;2.88;2.67;;;;;;;4.99;57.26;100174.19;5087555;28;19916;-85
2022/03/02 07:52:18;;;;;;;1.85;1.75;;;;;;;5.07;51.96;100192.59;5069842;28;20433;-85
2022/03/02 07:54:48;;;;;;;1.67;1.58;;;;;;;5.02;51.68;100197.75;5095445;28;20050;-86
2022/03/02 07:57:15;;;;;;;1.77;1.67;;;;;;;4.89;51.57;100153.97;5090328;28;20138;-85
2022/03/02 07:59:43;;;;;;;1.63;1.52;;;;;;;5.39;50.27;100179.97;5107700;28;20038;-85
2022/03/02 08:02:10;;;;;;;1.90;1.77;;;;;;;5.23;49.42;100142.25;5080953;28;20041;-86
2022/03/02 08:04:36;;;;;;;1.00;1.00;;;;;;;5.22;48.58;100156.22;5108582;28;20033;-86
2022/03/02 08:07:03;;;;;;;0.88;0.88;;;;;;;5.29;51.10;100136.25;5107233;28;20036;-86
2022/03/02 08:09:31;;;;;;;0.80;0.80;;;;;;;5.55;49.16;100133.97;5108657;28;20056;-86
2022/03/02 08:11:58;;;;;;;2.00;1.90;;;;;;;5.79;48.92;100149.06;5089552;28;20035;-85
2022/03/02 08:14:24;;;;;;;1.10;1.00;;;;;;;5.45;49.10;100119.88;5108136;28;20019;-86
2022/03/02 08:16:50;;;;;;;;;;;;;;;5.62;48.88;100159.34;5108386;28;20240;-84
2022/03/02 08:19:17;;;;;;;0.77;0.77;;;;;;;5.34;48.29;100179.03;5100356;28;19920;-86
2022/03/02 08:21:46;;;;;;;2.55;2.35;;;;;;;4.94;49.93;100098.28;5087781;28;20028;-86
2022/03/02 08:24:16;;;;;;;1.05;1.05;;;;;;;5.24;50.12;100117.88;5097882;28;20042;-86
2022/03/02 08:26:44;;;;;;;2.08;1.88;;;;;;;5.12;49.17;100044.47;5108223;28;20035;-85
2022/03/02 08:29:11;;;;;;;2.03;1.92;;;;;;;5.61;49.79;100141.91;5088846;28;20040;-85
2022/03/02 08:31:39;;;;;;;2.38;1.98;;;;;;;5.55;48.36;100132.22;5086823;28;20131;-86
2022/03/02 08:34:09;;;;;;;1.20;1.13;;;;;;;5.22;49.39;100051.59;5068710;28;20036;-85
2022/03/02 08:36:35;;;;;;;1.50;1.13;;;;;;;5.36;48.40;100088.34;5080786;28;20142;-87
2022/03/02 08:39:12;;;;;;;0.90;0.90;;;;;;;5.38;49.30;100066.59;5108289;28;20034;-86
2022/03/02 08:41:39;;;;;;;0.90;0.90;;;;;;;5.84;47.46;100102.00;5089036;28;20593;-86
2022/03/02 08:44:06;;;;;;;2.88;2.78;;;;;;;5.78;47.55;100099.31;5089643;28;20104;-85
2022/03/02 08:46:32;;;;;;;1.00;1.00;;;;;;;6.33;47.75;100110.38;5089759;28;20471;-82
2022/03/02 08:48:58;;;;;;;0.98;0.93;;;;;;;6.08;48.05;100080.47;5107791;28;20110;-85
2022/03/02 08:51:24;;;;;;;;;;;;;;;6.27;46.59;100112.94;5107780;28;20027;-85
2022/03/02 08:53:52;;;;;;;2.00;1.02;;;;;;;6.64;48.40;100108.00;5107326;28;20018;-84
2022/03/02 08:56:19;;;;;;;0.85;0.85;;;;;;;6.12;47.82;100061.28;5107533;28;20027;-85
2022/03/02 08:58:45;;;;;;;0.93;0.93;;;;;;;6.12;46.18;100068.25;5107486;28;20031;-87
2022/03/02 09:01:11;;;;;;;;;;;;;;;6.18;49.48;100092.78;5108120;28;20038;-84
2022/03/02 09:03:42;;;;;;;2.00;1.67;;;;;;;6.51;49.22;100099.16;5108028;28;19912;-84
2022/03/02 09:06:07;;;;;;;1.35;1.25;;;;;;;6.75;48.58;100074.00;5107052;28;20032;-85
2022/03/02 09:08:33;;;;;;;;;;;;;;;6.75;45.27;100092.34;5107957;28;20042;-85
2022/03/02 09:11:00;;;;;;;1.40;1.30;;;;;;;6.44;46.93;100081.63;5107374;28;19961;-85
2022/03/02 09:13:25;;;;;;;0.80;0.80;;;;;;;6.51;47.67;100078.19;5107547;28;20020;-84
2022/03/02 09:15:51;;;;;;;;;;;;;;;6.68;47.84;100086.19;5108607;28;20459;-85
2022/03/02 09:18:17;;;;;;;;;;;;;;;6.24;46.98;100079.75;5108210;28;20365;-85
2022/03/02 09:20:43;;;;;;;0.60;0.60;;;;;;;6.21;47.38;100045.66;5107251;28;19916;-84
2022/03/02 09:23:10;;;;;;;0.63;0.63;;;;;;;6.80;46.19;100067.06;5107219;28;20031;-84
2022/03/02 09:25:40;;;;;;;0.80;0.80;;;;;;;6.15;45.74;100034.22;5107066;28;20030;-84
2022/03/02 09:28:10;;;;;;;5.05;2.15;;;;;;;5.91;47.41;100054.06;5106760;28;20030;-85
2022/03/02 09:30:37;;;;;;;1.75;1.63;;;;;;;5.64;48.09;100028.47;5088795;28;20146;-85
2022/03/02 09:33:02;;;;;;;1.90;1.77;;;;;;;5.57;48.48;100030.16;5106395;28;20114;-85
2022/03/02 09:35:28;;;;;;;;;;;;;;;5.94;49.14;100061.97;5107891;28;20689;-85
2022/03/02 09:37:54;;;;;;;;;;;;;;;6.08;47.83;100054.25;5106825;28;20355;-82
2022/03/02 09:40:29;;;;;;;7.55;2.33;;;;;;;6.17;48.56;99999.34;5086721;28;20337;-85
2022/03/02 09:43:00;;;;;;;1.92;1.83;;;;;;;6.66;48.25;100032.88;5107141;28;20421;-83
2022/03/02 09:45:29;;;;;;;0.88;0.88;;;;;;;7.03;48.84;100019.06;5096449;28;20528;-84
2022/03/02 09:48:00;;;;;;;5.88;1.67;;;;;;;7.23;46.33;100012.19;5086823;28;20545;-86
2022/03/02 09:50:33;;;;;;;1.35;1.27;;;;;;;7.08;45.96;100004.25;5100986;28;20058;-84
2022/03/02 09:53:04;;;;;;;0.60;0.60;;;;;;;6.86;47.88;99962.19;5106659;28;20039;-85
2022/03/02 09:55:29;;;;;;;0.70;0.70;;;;;;;6.57;45.36;100020.59;5106882;28;20158;-84
2022/03/02 09:57:56;;;;;;;;;;;;;;;6.25;45.67;100015.97;5107443;28;20037;-83
2022/03/02 10:00:24;;;;;;;2.95;1.30;;;;;;;6.24;48.10;100006.38;5099993;28;19920;-84
2022/03/02 10:02:52;;;;;;;1.02;1.02;;;;;;;6.46;47.52;100011.78;5089066;28;20028;-84
2022/03/02 10:05:23;;;;;;;0.70;0.70;;;;;;;6.16;48.61;99997.56;5086600;28;20097;-83
2022/03/02 10:08:07;;;;;;;1.60;1.50;;;;;;;6.24;49.32;99977.56;5086549;28;20816;-86
2022/03/02 10:10:39;;;;;;;1.33;1.30;;;;;;;6.74;50.86;99967.38;5086619;28;20032;-84
2022/03/02 10:13:10;;;;;;;0.73;0.73;;;;;;;7.41;47.71;99986.84;5086291;28;20527;-83
2022/03/02 10:15:37;;;;;;;1.58;1.20;;;;;;;6.85;46.00;99970.91;5086246;28;20055;-84
2022/03/02 10:18:06;;;;;;;1.10;1.10;;;;;;;7.04;48.80;99974.50;5106824;28;20055;-83
2022/03/02 10:20:35;;;;;;;3.20;1.58;;;;;;;7.27;44.11;99977.19;5110392;28;20440;-82
2022/03/02 10:23:40;;;;;;;1.00;0.95;;;;;;;7.50;47.59;99968.50;5109665;28;20054;-84
2022/03/02 10:26:11;;;;;;;;;;;;;;;8.04;47.43;99956.28;5109731;28;20532;-86
2022/03/02 10:28:47;;;;;;;1.55;1.45;;;;;;;8.15;44.44;99951.00;5110290;28;19916;-85
2022/03/02 10:31:32;;;;;;;1.70;1.05;;;;;;;7.46;45.13;99946.63;5110093;28;20047;-84
2022/03/02 10:34:23;;;;;;;2.70;1.85;;;;;;;7.30;45.63;99916.84;5110488;28;20035;-84
2022/03/02 10:36:59;;;;;;;1.33;1.25;;;;;;;7.45;47.70;99918.63;5100293;28;20050;-84
2022/03/02 10:39:43;;;;;;;;;;;;;;;7.73;46.99;99941.41;5090327;28;20032;-86
2022/03/02 10:42:23;;;;;;;2.33;2.15;;;;;;;7.23;47.03;99906.31;5089432;28;20397;-86
2022/03/02 10:45:08;;;;;;;1.40;1.33;;;;;;;7.17;47.28;99926.44;5074988;28;20466;-85
2022/03/02 10:47:41;;;;;;;1.08;1.08;;;;;;;6.53;47.92;99892.13;5110420;28;20489;-84
2022/03/02 10:50:08;;;;;;;2.80;1.02;;;;;;;6.90;49.13;99890.50;5109666;28;20040;-83
2022/03/02 10:52:38;;;;;;;1.83;1.73;;;;;;;7.01;48.75;99898.41;5109928;28;20035;-84
2022/03/02 10:55:10;;;;;;;0.88;0.88;;;;;;;7.13;48.58;99876.59;5109029;28;20035;-84
2022/03/02 10:57:37;;;;;;;1.15;1.15;;;;;;;7.42;47.74;99892.38;5110058;28;20127;-83
2022/03/02 11:00:11;;;;;;;1.40;1.30;;;;;;;7.42;47.94;99876.63;5109938;28;20042;-85
2022/03/02 11:02:48;;;;;;;0.73;0.65;;;;;;;6.84;47.27;99845.91;5110215;28;20028;-85
2022/03/02 11:05:16;;;;;;;1.23;1.20;;;;;;;6.66;47.11;99891.31;5109448;28;20555;-84
2022/03/02 11:07:42;;;;;;;0.65;0.65;;;;;;;7.06;48.46;99899.31;5109337;28;20042;-86
2022/03/02 11:10:12;;;;;;;;;;;;;;;7.02;46.61;99894.06;5109409;28;20032;-85
2022/03/02 11:12:42;;;;;;;4.57;1.58;;;;;;;7.04;47.65;99881.81;5109660;28;19915;-85
2022/03/02 11:15:08;;;;;;;1.00;1.00;;;;;;;7.49;47.60;99859.13;5096056;28;20417;-84
2022/03/02 11:17:34;;;;;;;1.70;1.60;;;;;;;7.29;45.54;99839.00;5089397;28;20042;-84
2022/03/02 11:20:05;;;;;;;;;;;;;;;7.54;46.03;99875.75;5089460;28;20036;-85
2022/03/02 11:22:30;;;;;;;1.20;1.20;;;;;;;7.23;47.01;99860.00;5090776;28;19915;-84
2022/03/02 11:24:57;;;;;;;;;;;;;;;7.24;44.13;99873.97;5091783;28;20523;-84
2022/03/02 11:27:39;;;;;;;1.50;1.40;;;;;;;7.52;43.94;99875.75;5108522;28;20486;-86
2022/03/02 11:30:07;;;;;;;0.95;0.95;;;;;;;7.70;43.49;99843.34;5109164;28;20047;-86
2022/03/02 11:32:35;;;;;;;0.60;0.60;;;;;;;8.35;45.03;99840.59;5109164;28;20028;-85
2022/03/02 11:35:04;;;;;;;2.25;2.15;;;;;;;8.25;43.07;99839.75;5091318;28;20468;-85
2022/03/02 11:37:33;;;;;;;0.82;0.82;;;;;;;8.24;40.70;99839.75;5108917;28;20096;-84
2022/03/02 11:40:00;;;;;;;0.70;0.70;;;;;;;7.89;45.13;99819.69;5109219;28;20481;-84
2022/03/02 11:42:31;;;;;;;1.50;1.40;;;;;;;8.20;45.61;99831.03;5109349;28;20031;-84
2022/03/02 11:44:59;;;;;;;1.02;1.02;;;;;;;8.00;43.56;99825.81;5109063;28;20070;-84
2022/03/02 11:47:33;;;;;;;0.55;0.55;;;;;;;8.19;43.78;99821.38;5090170;28;20503;-83
2022/03/02 11:49:59;;;;;;;1.05;1.05;;;;;;;8.01;43.92;99809.16;5109075;28;20030;-86
2022/03/02 11:52:30;;;;;;;1.55;1.45;;;;;;;8.33;45.36;99825.72;5108815;28;20115;-84
2022/03/02 11:55:02;;;;;;;1.05;0.80;;;;;;;8.02;45.96;99800.41;5108912;28;20031;-84
2022/03/02 11:57:29;;;;;;;4.13;3.08;;;;;;;7.92;45.64;99792.56;5108709;28;20477;-83
2022/03/02 12:00:19;;;;;;;1.95;1.85;;;;;;;7.83;44.60;99824.97;5109246;28;20032;-84
2022/03/02 12:02:53;;;;;;;0.82;0.82;;;;;;;7.74;44.52;99810.13;5108839;28;20019;-86